sensor_id;sensor_type;location;lat;lon;timestamp;P1;durP1;ratioP1;P2;durP2;ratioP2
40997;SDS011;26740;45.944;12.480;2023-07-20T00:01:14;2.47;;;0.60;;
40997;SDS011;26740;45.944;12.480;2023-07-20T00:03:40;2.17;;;0.60;;
40997;SDS011;26740;45.944;12.480;2023-07-20T00:06:05;4.78;;;0.90;;
40997;SDS011;26740;45.944;12.480;2023-07-20T00:08:31;2.67;;;1.08;;
40997;SDS011;26740;45.944;12.480;2023-07-20T00:10:56;2.25;;;0.98;;
40997;SDS011;26740;45.944;12.480;2023-07-20T00:13:22;2.38;;;0.55;;
40997;SDS011;26740;45.944;12.480;2023-07-20T00:15:47;1.85;;;0.57;;
40997;SDS011;26740;45.944;12.480;2023-07-20T00:18:13;2.65;;;0.60;;
40997;SDS011;26740;45.944;12.480;2023-07-20T00:20:38;3.22;;;1.00;;
40997;SDS011;26740;45.944;12.480;2023-07-20T00:23:04;1.20;;;0.50;;
40997;SDS011;26740;45.944;12.480;2023-07-20T00:25:29;2.08;;;0.90;;
40997;SDS011;26740;45.944;12.480;2023-07-20T00:27:54;1.90;;;0.55;;
40997;SDS011;26740;45.944;12.480;2023-07-20T00:30:20;2.22;;;0.82;;
40997;SDS011;26740;45.944;12.480;2023-07-20T00:32:45;0.90;;;0.50;;
40997;SDS011;26740;45.944;12.480;2023-07-20T00:35:11;1.08;;;0.98;;
40997;SDS011;26740;45.944;12.480;2023-07-20T00:37:37;2.40;;;0.70;;
40997;SDS011;26740;45.944;12.480;2023-07-20T00:40:02;1.05;;;0.40;;
40997;SDS011;26740;45.944;12.480;2023-07-20T00:42:30;1.25;;;0.73;;
40997;SDS011;26740;45.944;12.480;2023-07-20T00:44:55;1.85;;;0.50;;
40997;SDS011;26740;45.944;12.480;2023-07-20T00:47:21;2.42;;;0.57;;
40997;SDS011;26740;45.944;12.480;2023-07-20T00:49:46;1.95;;;0.75;;
40997;SDS011;26740;45.944;12.480;2023-07-20T00:52:12;1.45;;;1.00;;
40997;SDS011;26740;45.944;12.480;2023-07-20T00:54:39;2.85;;;0.93;;
40997;SDS011;26740;45.944;12.480;2023-07-20T00:57:05;2.78;;;0.98;;
40997;SDS011;26740;45.944;12.480;2023-07-20T00:59:31;2.42;;;0.90;;
40997;SDS011;26740;45.944;12.480;2023-07-20T01:01:57;4.70;;;0.90;;
40997;SDS011;26740;45.944;12.480;2023-07-20T01:04:22;4.65;;;0.70;;
40997;SDS011;26740;45.944;12.480;2023-07-20T01:06:58;1.48;;;0.95;;
40997;SDS011;26740;45.944;12.480;2023-07-20T01:09:28;1.50;;;1.08;;
40997;SDS011;26740;45.944;12.480;2023-07-20T01:12:13;1.48;;;0.75;;
40997;SDS011;26740;45.944;12.480;2023-07-20T01:14:39;3.05;;;1.65;;
40997;SDS011;26740;45.944;12.480;2023-07-20T01:17:05;2.70;;;1.20;;
40997;SDS011;26740;45.944;12.480;2023-07-20T01:19:30;3.95;;;1.48;;
40997;SDS011;26740;45.944;12.480;2023-07-20T01:22:00;1.67;;;1.38;;
40997;SDS011;26740;45.944;12.480;2023-07-20T01:24:45;2.15;;;1.50;;
40997;SDS011;26740;45.944;12.480;2023-07-20T01:32:14;2.38;;;1.20;;
40997;SDS011;26740;45.944;12.480;2023-07-20T01:34:42;2.70;;;1.15;;
40997;SDS011;26740;45.944;12.480;2023-07-20T01:37:09;2.55;;;1.25;;
40997;SDS011;26740;45.944;12.480;2023-07-20T01:39:35;3.65;;;1.27;;
40997;SDS011;26740;45.944;12.480;2023-07-20T01:42:01;2.72;;;1.40;;
40997;SDS011;26740;45.944;12.480;2023-07-20T01:44:28;3.83;;;1.42;;
40997;SDS011;26740;45.944;12.480;2023-07-20T01:46:54;1.67;;;1.15;;
40997;SDS011;26740;45.944;12.480;2023-07-20T01:49:19;4.90;;;1.45;;
40997;SDS011;26740;45.944;12.480;2023-07-20T01:51:45;2.63;;;1.25;;
40997;SDS011;26740;45.944;12.480;2023-07-20T01:54:10;3.65;;;1.55;;
40997;SDS011;26740;45.944;12.480;2023-07-20T01:56:36;1.85;;;1.48;;
40997;SDS011;26740;45.944;12.480;2023-07-20T01:59:01;3.92;;;1.48;;
40997;SDS011;26740;45.944;12.480;2023-07-20T02:01:26;1.98;;;1.52;;
40997;SDS011;26740;45.944;12.480;2023-07-20T02:03:53;1.67;;;1.33;;
40997;SDS011;26740;45.944;12.480;2023-07-20T02:06:19;1.42;;;1.27;;
40997;SDS011;26740;45.944;12.480;2023-07-20T02:08:44;4.00;;;1.58;;
40997;SDS011;26740;45.944;12.480;2023-07-20T02:11:10;4.38;;;1.50;;
40997;SDS011;26740;45.944;12.480;2023-07-20T02:13:35;1.83;;;1.60;;
40997;SDS011;26740;45.944;12.480;2023-07-20T02:16:01;1.70;;;1.60;;
40997;SDS011;26740;45.944;12.480;2023-07-20T02:18:26;2.75;;;1.73;;
40997;SDS011;26740;45.944;12.480;2023-07-20T02:20:52;2.70;;;1.70;;
40997;SDS011;26740;45.944;12.480;2023-07-20T02:23:18;2.25;;;1.50;;
40997;SDS011;26740;45.944;12.480;2023-07-20T02:25:43;2.22;;;1.42;;
40997;SDS011;26740;45.944;12.480;2023-07-20T02:28:11;3.38;;;1.55;;
40997;SDS011;26740;45.944;12.480;2023-07-20T02:30:37;5.15;;;1.50;;
40997;SDS011;26740;45.944;12.480;2023-07-20T02:33:03;3.13;;;1.80;;
40997;SDS011;26740;45.944;12.480;2023-07-20T02:35:30;2.45;;;1.45;;
40997;SDS011;26740;45.944;12.480;2023-07-20T02:37:55;2.75;;;1.60;;
40997;SDS011;26740;45.944;12.480;2023-07-20T02:40:21;3.28;;;1.90;;
40997;SDS011;26740;45.944;12.480;2023-07-20T02:42:46;2.22;;;1.40;;
40997;SDS011;26740;45.944;12.480;2023-07-20T02:45:12;3.03;;;1.65;;
40997;SDS011;26740;45.944;12.480;2023-07-20T02:47:37;3.50;;;1.42;;
40997;SDS011;26740;45.944;12.480;2023-07-20T02:50:03;3.10;;;1.38;;
40997;SDS011;26740;45.944;12.480;2023-07-20T02:52:28;2.38;;;1.58;;
40997;SDS011;26740;45.944;12.480;2023-07-20T02:54:54;2.50;;;1.80;;
40997;SDS011;26740;45.944;12.480;2023-07-20T02:57:20;2.42;;;1.08;;
40997;SDS011;26740;45.944;12.480;2023-07-20T02:59:45;2.33;;;1.40;;
40997;SDS011;26740;45.944;12.480;2023-07-20T03:02:11;1.90;;;1.45;;
40997;SDS011;26740;45.944;12.480;2023-07-20T03:04:37;3.13;;;1.73;;
40997;SDS011;26740;45.944;12.480;2023-07-20T03:07:04;4.20;;;2.75;;
40997;SDS011;26740;45.944;12.480;2023-07-20T03:09:29;1.90;;;1.40;;
40997;SDS011;26740;45.944;12.480;2023-07-20T03:11:55;2.35;;;1.23;;
40997;SDS011;26740;45.944;12.480;2023-07-20T03:14:20;5.60;;;1.65;;
40997;SDS011;26740;45.944;12.480;2023-07-20T03:16:46;1.77;;;1.58;;
40997;SDS011;26740;45.944;12.480;2023-07-20T03:19:11;3.25;;;1.55;;
40997;SDS011;26740;45.944;12.480;2023-07-20T03:21:36;2.75;;;1.40;;
40997;SDS011;26740;45.944;12.480;2023-07-20T03:24:06;4.32;;;1.40;;
40997;SDS011;26740;45.944;12.480;2023-07-20T03:26:31;4.93;;;1.30;;
40997;SDS011;26740;45.944;12.480;2023-07-20T03:28:56;9.35;;;2.05;;
40997;SDS011;26740;45.944;12.480;2023-07-20T03:31:22;6.97;;;1.60;;
40997;SDS011;26740;45.944;12.480;2023-07-20T03:33:47;3.40;;;1.75;;
40997;SDS011;26740;45.944;12.480;2023-07-20T03:36:13;5.10;;;1.33;;
40997;SDS011;26740;45.944;12.480;2023-07-20T03:38:38;2.67;;;1.80;;
40997;SDS011;26740;45.944;12.480;2023-07-20T03:41:04;1.63;;;1.52;;
40997;SDS011;26740;45.944;12.480;2023-07-20T03:43:29;2.75;;;1.75;;
40997;SDS011;26740;45.944;12.480;2023-07-20T03:45:55;3.65;;;1.75;;
40997;SDS011;26740;45.944;12.480;2023-07-20T03:48:21;1.75;;;1.60;;
40997;SDS011;26740;45.944;12.480;2023-07-20T03:50:47;3.90;;;1.92;;
40997;SDS011;26740;45.944;12.480;2023-07-20T03:53:13;3.83;;;1.70;;
40997;SDS011;26740;45.944;12.480;2023-07-20T03:55:40;3.22;;;1.48;;
40997;SDS011;26740;45.944;12.480;2023-07-20T03:58:06;1.77;;;1.40;;
40997;SDS011;26740;45.944;12.480;2023-07-20T04:00:32;2.25;;;1.30;;
40997;SDS011;26740;45.944;12.480;2023-07-20T04:02:57;3.85;;;1.55;;
40997;SDS011;26740;45.944;12.480;2023-07-20T04:05:24;1.52;;;1.42;;
40997;SDS011;26740;45.944;12.480;2023-07-20T04:07:49;2.00;;;1.80;;
40997;SDS011;26740;45.944;12.480;2023-07-20T04:10:16;1.30;;;1.05;;
40997;SDS011;26740;45.944;12.480;2023-07-20T04:12:43;7.10;;;2.40;;
40997;SDS011;26740;45.944;12.480;2023-07-20T04:15:09;3.03;;;1.50;;
40997;SDS011;26740;45.944;12.480;2023-07-20T04:17:34;1.60;;;1.45;;
40997;SDS011;26740;45.944;12.480;2023-07-20T04:19:59;2.33;;;1.30;;
40997;SDS011;26740;45.944;12.480;2023-07-20T04:22:26;2.20;;;1.38;;
40997;SDS011;26740;45.944;12.480;2023-07-20T04:24:52;2.42;;;1.55;;
40997;SDS011;26740;45.944;12.480;2023-07-20T04:27:17;9.27;;;2.05;;
40997;SDS011;26740;45.944;12.480;2023-07-20T04:29:43;2.95;;;1.33;;
40997;SDS011;26740;45.944;12.480;2023-07-20T04:32:08;4.20;;;1.20;;
40997;SDS011;26740;45.944;12.480;2023-07-20T04:34:34;2.85;;;1.33;;
40997;SDS011;26740;45.944;12.480;2023-07-20T04:37:02;2.58;;;1.48;;
40997;SDS011;26740;45.944;12.480;2023-07-20T04:39:28;2.22;;;1.15;;
40997;SDS011;26740;45.944;12.480;2023-07-20T04:41:53;4.15;;;1.70;;
40997;SDS011;26740;45.944;12.480;2023-07-20T04:44:19;4.38;;;1.73;;
40997;SDS011;26740;45.944;12.480;2023-07-20T04:46:44;3.78;;;1.40;;
40997;SDS011;26740;45.944;12.480;2023-07-20T04:49:10;2.75;;;1.60;;
40997;SDS011;26740;45.944;12.480;2023-07-20T04:51:38;6.80;;;2.08;;
40997;SDS011;26740;45.944;12.480;2023-07-20T04:54:03;2.85;;;1.73;;
40997;SDS011;26740;45.944;12.480;2023-07-20T04:56:28;2.35;;;1.67;;
40997;SDS011;26740;45.944;12.480;2023-07-20T04:58:54;4.22;;;1.73;;
40997;SDS011;26740;45.944;12.480;2023-07-20T05:01:19;10.23;;;2.35;;
40997;SDS011;26740;45.944;12.480;2023-07-20T05:03:45;5.20;;;1.80;;
40997;SDS011;26740;45.944;12.480;2023-07-20T05:06:10;2.47;;;1.85;;
40997;SDS011;26740;45.944;12.480;2023-07-20T05:08:36;4.28;;;2.08;;
40997;SDS011;26740;45.944;12.480;2023-07-20T05:11:01;3.85;;;1.98;;
40997;SDS011;26740;45.944;12.480;2023-07-20T05:13:26;2.97;;;1.75;;
40997;SDS011;26740;45.944;12.480;2023-07-20T05:15:52;2.30;;;1.88;;
40997;SDS011;26740;45.944;12.480;2023-07-20T05:18:18;6.15;;;2.60;;
40997;SDS011;26740;45.944;12.480;2023-07-20T05:20:48;3.50;;;2.00;;
40997;SDS011;26740;45.944;12.480;2023-07-20T05:23:13;5.28;;;2.53;;
40997;SDS011;26740;45.944;12.480;2023-07-20T05:25:39;8.73;;;2.05;;
40997;SDS011;26740;45.944;12.480;2023-07-20T05:28:04;3.45;;;1.88;;
40997;SDS011;26740;45.944;12.480;2023-07-20T05:30:30;5.85;;;2.20;;
40997;SDS011;26740;45.944;12.480;2023-07-20T05:32:55;5.20;;;2.05;;
40997;SDS011;26740;45.944;12.480;2023-07-20T05:35:20;3.17;;;1.95;;
40997;SDS011;26740;45.944;12.480;2023-07-20T05:37:47;4.43;;;1.70;;
40997;SDS011;26740;45.944;12.480;2023-07-20T05:40:13;2.60;;;1.60;;
40997;SDS011;26740;45.944;12.480;2023-07-20T05:42:39;3.17;;;1.45;;
40997;SDS011;26740;45.944;12.480;2023-07-20T05:45:05;2.78;;;1.35;;
40997;SDS011;26740;45.944;12.480;2023-07-20T05:47:30;2.17;;;1.23;;
40997;SDS011;26740;45.944;12.480;2023-07-20T05:49:57;1.70;;;1.17;;
40997;SDS011;26740;45.944;12.480;2023-07-20T05:52:22;1.38;;;1.27;;
40997;SDS011;26740;45.944;12.480;2023-07-20T05:54:48;1.30;;;1.20;;
40997;SDS011;26740;45.944;12.480;2023-07-20T05:57:13;3.00;;;1.65;;
40997;SDS011;26740;45.944;12.480;2023-07-20T05:59:38;3.35;;;1.45;;
40997;SDS011;26740;45.944;12.480;2023-07-20T06:02:06;4.13;;;1.70;;
40997;SDS011;26740;45.944;12.480;2023-07-20T06:04:32;7.20;;;2.13;;
40997;SDS011;26740;45.944;12.480;2023-07-20T06:06:57;3.17;;;1.90;;
40997;SDS011;26740;45.944;12.480;2023-07-20T06:09:22;4.38;;;1.80;;
40997;SDS011;26740;45.944;12.480;2023-07-20T06:11:48;4.40;;;1.65;;
40997;SDS011;26740;45.944;12.480;2023-07-20T06:14:13;3.55;;;1.30;;
40997;SDS011;26740;45.944;12.480;2023-07-20T06:16:40;2.97;;;1.30;;
40997;SDS011;26740;45.944;12.480;2023-07-20T06:19:05;5.13;;;1.27;;
40997;SDS011;26740;45.944;12.480;2023-07-20T06:21:31;1.45;;;0.93;;
40997;SDS011;26740;45.944;12.480;2023-07-20T06:23:56;2.95;;;0.98;;
40997;SDS011;26740;45.944;12.480;2023-07-20T06:26:21;2.20;;;1.20;;
40997;SDS011;26740;45.944;12.480;2023-07-20T06:28:47;3.72;;;1.15;;
40997;SDS011;26740;45.944;12.480;2023-07-20T06:31:12;9.30;;;1.75;;
40997;SDS011;26740;45.944;12.480;2023-07-20T06:33:37;3.83;;;1.27;;
40997;SDS011;26740;45.944;12.480;2023-07-20T06:36:03;1.88;;;1.40;;
40997;SDS011;26740;45.944;12.480;2023-07-20T06:38:29;2.20;;;1.10;;
40997;SDS011;26740;45.944;12.480;2023-07-20T06:40:54;4.32;;;1.27;;
40997;SDS011;26740;45.944;12.480;2023-07-20T06:43:19;4.80;;;1.25;;
40997;SDS011;26740;45.944;12.480;2023-07-20T06:45:50;4.40;;;0.65;;
40997;SDS011;26740;45.944;12.480;2023-07-20T06:48:16;2.28;;;0.70;;
40997;SDS011;26740;45.944;12.480;2023-07-20T06:50:42;1.75;;;0.70;;
40997;SDS011;26740;45.944;12.480;2023-07-20T06:53:08;3.50;;;0.85;;
40997;SDS011;26740;45.944;12.480;2023-07-20T06:55:33;2.08;;;0.70;;
40997;SDS011;26740;45.944;12.480;2023-07-20T06:57:58;2.92;;;0.52;;
40997;SDS011;26740;45.944;12.480;2023-07-20T07:00:24;3.42;;;0.70;;
40997;SDS011;26740;45.944;12.480;2023-07-20T07:02:49;3.13;;;0.63;;
40997;SDS011;26740;45.944;12.480;2023-07-20T07:05:14;2.35;;;0.85;;
40997;SDS011;26740;45.944;12.480;2023-07-20T07:07:41;1.02;;;0.60;;
40997;SDS011;26740;45.944;12.480;2023-07-20T07:10:06;1.75;;;0.50;;
40997;SDS011;26740;45.944;12.480;2023-07-20T07:12:32;0.73;;;0.63;;
40997;SDS011;26740;45.944;12.480;2023-07-20T07:14:57;0.75;;;0.60;;
40997;SDS011;26740;45.944;12.480;2023-07-20T07:17:23;1.42;;;0.40;;
40997;SDS011;26740;45.944;12.480;2023-07-20T07:19:48;1.73;;;0.52;;
40997;SDS011;26740;45.944;12.480;2023-07-20T07:22:14;2.33;;;0.75;;
40997;SDS011;26740;45.944;12.480;2023-07-20T07:24:39;2.92;;;0.50;;
40997;SDS011;26740;45.944;12.480;2023-07-20T07:27:07;1.00;;;0.40;;
40997;SDS011;26740;45.944;12.480;2023-07-20T07:29:33;1.90;;;0.73;;
40997;SDS011;26740;45.944;12.480;2023-07-20T07:31:58;0.77;;;0.50;;
40997;SDS011;26740;45.944;12.480;2023-07-20T07:34:24;2.47;;;0.82;;
40997;SDS011;26740;45.944;12.480;2023-07-20T07:36:50;2.05;;;0.52;;
40997;SDS011;26740;45.944;12.480;2023-07-20T07:39:15;1.75;;;0.77;;
40997;SDS011;26740;45.944;12.480;2023-07-20T07:41:41;1.23;;;0.50;;
40997;SDS011;26740;45.944;12.480;2023-07-20T07:44:06;1.83;;;0.30;;
40997;SDS011;26740;45.944;12.480;2023-07-20T07:46:32;1.92;;;0.60;;
40997;SDS011;26740;45.944;12.480;2023-07-20T07:48:57;1.08;;;0.60;;
40997;SDS011;26740;45.944;12.480;2023-07-20T07:51:23;2.80;;;0.82;;
40997;SDS011;26740;45.944;12.480;2023-07-20T07:53:48;1.13;;;0.60;;
40997;SDS011;26740;45.944;12.480;2023-07-20T07:56:14;0.75;;;0.55;;
40997;SDS011;26740;45.944;12.480;2023-07-20T07:58:39;5.15;;;1.00;;
40997;SDS011;26740;45.944;12.480;2023-07-20T08:01:05;3.45;;;0.90;;
40997;SDS011;26740;45.944;12.480;2023-07-20T08:03:31;0.77;;;0.55;;
40997;SDS011;26740;45.944;12.480;2023-07-20T08:05:56;3.55;;;0.60;;
40997;SDS011;26740;45.944;12.480;2023-07-20T08:08:22;2.63;;;0.50;;
40997;SDS011;26740;45.944;12.480;2023-07-20T08:10:47;1.77;;;0.88;;
40997;SDS011;26740;45.944;12.480;2023-07-20T08:13:13;1.52;;;0.80;;
40997;SDS011;26740;45.944;12.480;2023-07-20T08:15:38;1.67;;;0.57;;
40997;SDS011;26740;45.944;12.480;2023-07-20T08:18:04;0.95;;;0.45;;
40997;SDS011;26740;45.944;12.480;2023-07-20T08:20:29;2.08;;;0.60;;
40997;SDS011;26740;45.944;12.480;2023-07-20T08:22:55;1.10;;;0.60;;
40997;SDS011;26740;45.944;12.480;2023-07-20T08:25:21;1.75;;;0.57;;
40997;SDS011;26740;45.944;12.480;2023-07-20T08:27:46;1.50;;;0.55;;
40997;SDS011;26740;45.944;12.480;2023-07-20T08:30:12;1.20;;;0.52;;
40997;SDS011;26740;45.944;12.480;2023-07-20T08:32:38;3.38;;;0.50;;
40997;SDS011;26740;45.944;12.480;2023-07-20T08:35:03;3.08;;;0.60;;
40997;SDS011;26740;45.944;12.480;2023-07-20T08:37:29;1.60;;;0.60;;
40997;SDS011;26740;45.944;12.480;2023-07-20T08:39:54;2.67;;;0.47;;
40997;SDS011;26740;45.944;12.480;2023-07-20T08:42:19;0.60;;;0.30;;
40997;SDS011;26740;45.944;12.480;2023-07-20T08:44:45;0.80;;;0.30;;
40997;SDS011;26740;45.944;12.480;2023-07-20T08:47:13;0.95;;;0.50;;
40997;SDS011;26740;45.944;12.480;2023-07-20T08:49:39;2.95;;;0.40;;
40997;SDS011;26740;45.944;12.480;2023-07-20T08:52:04;2.08;;;0.73;;
40997;SDS011;26740;45.944;12.480;2023-07-20T08:54:30;3.78;;;0.70;;
40997;SDS011;26740;45.944;12.480;2023-07-20T08:57:02;1.63;;;0.40;;
40997;SDS011;26740;45.944;12.480;2023-07-20T08:59:28;3.38;;;0.65;;
40997;SDS011;26740;45.944;12.480;2023-07-20T09:01:54;1.40;;;0.52;;
40997;SDS011;26740;45.944;12.480;2023-07-20T09:04:20;3.40;;;0.40;;
40997;SDS011;26740;45.944;12.480;2023-07-20T09:06:45;1.98;;;0.60;;
40997;SDS011;26740;45.944;12.480;2023-07-20T09:09:12;1.17;;;0.50;;
40997;SDS011;26740;45.944;12.480;2023-07-20T09:11:37;1.85;;;0.40;;
40997;SDS011;26740;45.944;12.480;2023-07-20T09:14:03;8.90;;;0.60;;
40997;SDS011;26740;45.944;12.480;2023-07-20T09:16:29;1.48;;;0.32;;
40997;SDS011;26740;45.944;12.480;2023-07-20T09:18:54;0.98;;;0.55;;
40997;SDS011;26740;45.944;12.480;2023-07-20T09:21:22;1.73;;;0.63;;
40997;SDS011;26740;45.944;12.480;2023-07-20T09:23:48;1.92;;;0.40;;
40997;SDS011;26740;45.944;12.480;2023-07-20T09:26:14;2.13;;;0.50;;
40997;SDS011;26740;45.944;12.480;2023-07-20T09:28:47;1.33;;;0.60;;
40997;SDS011;26740;45.944;12.480;2023-07-20T09:31:16;1.63;;;0.50;;
40997;SDS011;26740;45.944;12.480;2023-07-20T09:33:42;4.95;;;0.65;;
40997;SDS011;26740;45.944;12.480;2023-07-20T09:36:09;1.92;;;0.50;;
40997;SDS011;26740;45.944;12.480;2023-07-20T09:38:36;2.22;;;0.43;;
40997;SDS011;26740;45.944;12.480;2023-07-20T09:41:02;3.17;;;0.40;;
40997;SDS011;26740;45.944;12.480;2023-07-20T09:43:30;1.38;;;0.60;;
40997;SDS011;26740;45.944;12.480;2023-07-20T09:45:58;2.15;;;0.50;;
40997;SDS011;26740;45.944;12.480;2023-07-20T09:48:24;1.42;;;0.80;;
40997;SDS011;26740;45.944;12.480;2023-07-20T09:50:50;2.42;;;0.60;;
40997;SDS011;26740;45.944;12.480;2023-07-20T09:53:16;1.02;;;0.60;;
40997;SDS011;26740;45.944;12.480;2023-07-20T09:55:43;1.25;;;0.75;;
40997;SDS011;26740;45.944;12.480;2023-07-20T09:58:09;1.63;;;0.60;;
40997;SDS011;26740;45.944;12.480;2023-07-20T10:00:38;1.60;;;0.52;;
40997;SDS011;26740;45.944;12.480;2023-07-20T10:03:04;1.80;;;1.05;;
40997;SDS011;26740;45.944;12.480;2023-07-20T10:05:33;1.40;;;0.45;;
40997;SDS011;26740;45.944;12.480;2023-07-20T10:08:02;0.65;;;0.40;;
40997;SDS011;26740;45.944;12.480;2023-07-20T10:10:28;1.17;;;0.60;;
40997;SDS011;26740;45.944;12.480;2023-07-20T10:12:54;0.88;;;0.40;;
40997;SDS011;26740;45.944;12.480;2023-07-20T10:15:23;1.83;;;0.50;;
40997;SDS011;26740;45.944;12.480;2023-07-20T10:17:53;1.52;;;0.40;;
40997;SDS011;26740;45.944;12.480;2023-07-20T10:20:22;6.57;;;0.60;;
40997;SDS011;26740;45.944;12.480;2023-07-20T10:22:49;2.50;;;0.40;;
40997;SDS011;26740;45.944;12.480;2023-07-20T10:25:15;3.35;;;0.73;;
40997;SDS011;26740;45.944;12.480;2023-07-20T10:27:41;2.03;;;0.55;;
40997;SDS011;26740;45.944;12.480;2023-07-20T10:30:07;1.48;;;0.60;;
40997;SDS011;26740;45.944;12.480;2023-07-20T10:32:32;1.00;;;0.50;;
40997;SDS011;26740;45.944;12.480;2023-07-20T10:34:58;2.15;;;0.50;;
40997;SDS011;26740;45.944;12.480;2023-07-20T10:42:59;1.00;;;0.60;;
40997;SDS011;26740;45.944;12.480;2023-07-20T10:48:02;3.08;;;0.50;;
40997;SDS011;26740;45.944;12.480;2023-07-20T10:50:28;0.50;;;0.40;;
40997;SDS011;26740;45.944;12.480;2023-07-20T10:55:39;0.60;;;0.40;;
40997;SDS011;26740;45.944;12.480;2023-07-20T10:58:08;0.95;;;0.50;;
40997;SDS011;26740;45.944;12.480;2023-07-20T11:00:35;0.70;;;0.70;;
40997;SDS011;26740;45.944;12.480;2023-07-20T11:03:00;1.13;;;0.38;;
40997;SDS011;26740;45.944;12.480;2023-07-20T11:05:36;2.25;;;0.40;;
40997;SDS011;26740;45.944;12.480;2023-07-20T11:08:37;0.98;;;0.50;;
40997;SDS011;26740;45.944;12.480;2023-07-20T11:10:50;4.85;;;0.82;;
40997;SDS011;26740;45.944;12.480;2023-07-20T11:13:35;3.35;;;1.05;;
40997;SDS011;26740;45.944;12.480;2023-07-20T11:16:12;4.18;;;0.70;;
40997;SDS011;26740;45.944;12.480;2023-07-20T11:18:37;3.05;;;0.68;;
40997;SDS011;26740;45.944;12.480;2023-07-20T11:21:06;1.95;;;0.50;;
40997;SDS011;26740;45.944;12.480;2023-07-20T11:23:32;2.45;;;0.70;;
40997;SDS011;26740;45.944;12.480;2023-07-20T11:25:58;2.60;;;0.60;;
40997;SDS011;26740;45.944;12.480;2023-07-20T11:28:25;1.40;;;0.50;;
40997;SDS011;26740;45.944;12.480;2023-07-20T11:30:52;1.00;;;0.70;;
40997;SDS011;26740;45.944;12.480;2023-07-20T11:33:17;0.85;;;0.50;;
40997;SDS011;26740;45.944;12.480;2023-07-20T11:35:42;1.20;;;0.80;;
40997;SDS011;26740;45.944;12.480;2023-07-20T11:38:08;1.90;;;0.70;;
40997;SDS011;26740;45.944;12.480;2023-07-20T11:40:34;1.80;;;0.50;;
40997;SDS011;26740;45.944;12.480;2023-07-20T11:42:59;1.15;;;0.50;;
40997;SDS011;26740;45.944;12.480;2023-07-20T11:45:25;1.40;;;0.68;;
40997;SDS011;26740;45.944;12.480;2023-07-20T11:47:50;0.80;;;0.70;;
40997;SDS011;26740;45.944;12.480;2023-07-20T11:50:16;1.05;;;0.60;;
40997;SDS011;26740;45.944;12.480;2023-07-20T11:52:41;0.75;;;0.52;;
40997;SDS011;26740;45.944;12.480;2023-07-20T11:55:07;1.70;;;0.77;;
40997;SDS011;26740;45.944;12.480;2023-07-20T11:57:32;4.25;;;0.85;;
40997;SDS011;26740;45.944;12.480;2023-07-20T12:00:00;1.17;;;0.60;;
40997;SDS011;26740;45.944;12.480;2023-07-20T12:02:27;4.50;;;0.60;;
40997;SDS011;26740;45.944;12.480;2023-07-20T12:04:54;3.50;;;0.50;;
40997;SDS011;26740;45.944;12.480;2023-07-20T12:07:19;0.65;;;0.57;;
40997;SDS011;26740;45.944;12.480;2023-07-20T12:10:02;0.80;;;0.70;;
40997;SDS011;26740;45.944;12.480;2023-07-20T12:12:28;0.75;;;0.60;;
40997;SDS011;26740;45.944;12.480;2023-07-20T12:14:53;2.22;;;0.60;;
40997;SDS011;26740;45.944;12.480;2023-07-20T12:17:18;6.10;;;1.00;;
40997;SDS011;26740;45.944;12.480;2023-07-20T12:19:44;5.68;;;0.60;;
40997;SDS011;26740;45.944;12.480;2023-07-20T12:22:09;1.23;;;0.50;;
40997;SDS011;26740;45.944;12.480;2023-07-20T12:24:36;2.28;;;0.98;;
40997;SDS011;26740;45.944;12.480;2023-07-20T12:27:02;5.20;;;0.85;;
40997;SDS011;26740;45.944;12.480;2023-07-20T12:29:28;1.33;;;0.50;;
40997;SDS011;26740;45.944;12.480;2023-07-20T12:31:53;2.85;;;0.63;;
40997;SDS011;26740;45.944;12.480;2023-07-20T12:34:19;0.98;;;0.45;;
40997;SDS011;26740;45.944;12.480;2023-07-20T12:36:44;1.85;;;0.60;;
40997;SDS011;26740;45.944;12.480;2023-07-20T12:39:10;3.47;;;0.65;;
40997;SDS011;26740;45.944;12.480;2023-07-20T12:41:35;3.65;;;0.40;;
40997;SDS011;26740;45.944;12.480;2023-07-20T12:44:00;1.55;;;0.70;;
40997;SDS011;26740;45.944;12.480;2023-07-20T12:46:26;1.40;;;0.45;;
40997;SDS011;26740;45.944;12.480;2023-07-20T12:48:54;2.05;;;0.70;;
40997;SDS011;26740;45.944;12.480;2023-07-20T12:51:19;0.70;;;0.50;;
40997;SDS011;26740;45.944;12.480;2023-07-20T12:53:44;1.25;;;0.40;;
40997;SDS011;26740;45.944;12.480;2023-07-20T12:56:10;5.95;;;0.80;;
40997;SDS011;26740;45.944;12.480;2023-07-20T12:58:35;2.10;;;0.75;;
40997;SDS011;26740;45.944;12.480;2023-07-20T13:01:01;2.33;;;0.40;;
40997;SDS011;26740;45.944;12.480;2023-07-20T13:03:27;1.45;;;0.60;;
40997;SDS011;26740;45.944;12.480;2023-07-20T13:05:52;3.38;;;0.50;;
40997;SDS011;26740;45.944;12.480;2023-07-20T13:08:18;1.85;;;0.60;;
40997;SDS011;26740;45.944;12.480;2023-07-20T13:10:44;1.70;;;0.60;;
40997;SDS011;26740;45.944;12.480;2023-07-20T13:13:10;0.70;;;0.30;;
40997;SDS011;26740;45.944;12.480;2023-07-20T13:15:43;1.13;;;0.50;;
40997;SDS011;26740;45.944;12.480;2023-07-20T13:18:08;1.20;;;0.50;;
40997;SDS011;26740;45.944;12.480;2023-07-20T13:20:34;1.73;;;0.60;;
40997;SDS011;26740;45.944;12.480;2023-07-20T13:22:59;1.35;;;0.60;;
40997;SDS011;26740;45.944;12.480;2023-07-20T13:25:24;1.55;;;0.73;;
40997;SDS011;26740;45.944;12.480;2023-07-20T13:27:50;1.40;;;0.43;;
40997;SDS011;26740;45.944;12.480;2023-07-20T13:30:15;2.95;;;0.70;;
40997;SDS011;26740;45.944;12.480;2023-07-20T13:32:44;1.13;;;0.63;;
40997;SDS011;26740;45.944;12.480;2023-07-20T13:35:09;4.40;;;0.80;;
40997;SDS011;26740;45.944;12.480;2023-07-20T13:37:35;0.88;;;0.47;;
40997;SDS011;26740;45.944;12.480;2023-07-20T13:40:00;0.82;;;0.50;;
40997;SDS011;26740;45.944;12.480;2023-07-20T13:42:25;2.17;;;0.60;;
40997;SDS011;26740;45.944;12.480;2023-07-20T13:44:51;1.05;;;0.68;;
40997;SDS011;26740;45.944;12.480;2023-07-20T13:47:16;1.77;;;0.50;;
40997;SDS011;26740;45.944;12.480;2023-07-20T13:49:42;1.70;;;0.50;;
40997;SDS011;26740;45.944;12.480;2023-07-20T13:52:08;2.85;;;0.50;;
40997;SDS011;26740;45.944;12.480;2023-07-20T13:54:33;1.98;;;0.70;;
40997;SDS011;26740;45.944;12.480;2023-07-20T13:56:58;2.15;;;0.43;;
40997;SDS011;26740;45.944;12.480;2023-07-20T13:59:24;3.38;;;0.32;;
40997;SDS011;26740;45.944;12.480;2023-07-20T14:01:50;4.10;;;0.50;;
40997;SDS011;26740;45.944;12.480;2023-07-20T14:04:15;0.75;;;0.43;;
40997;SDS011;26740;45.944;12.480;2023-07-20T14:06:41;2.30;;;0.55;;
40997;SDS011;26740;45.944;12.480;2023-07-20T14:09:06;1.75;;;0.55;;
40997;SDS011;26740;45.944;12.480;2023-07-20T14:11:32;0.90;;;0.70;;
40997;SDS011;26740;45.944;12.480;2023-07-20T14:13:58;2.15;;;0.50;;
40997;SDS011;26740;45.944;12.480;2023-07-20T14:16:23;0.60;;;0.40;;
40997;SDS011;26740;45.944;12.480;2023-07-20T14:18:49;2.22;;;0.50;;
40997;SDS011;26740;45.944;12.480;2023-07-20T14:21:18;0.65;;;0.50;;
40997;SDS011;26740;45.944;12.480;2023-07-20T14:23:47;2.45;;;0.40;;
40997;SDS011;26740;45.944;12.480;2023-07-20T14:26:13;2.35;;;0.70;;
40997;SDS011;26740;45.944;12.480;2023-07-20T14:28:39;2.92;;;0.55;;
40997;SDS011;26740;45.944;12.480;2023-07-20T14:31:04;1.75;;;0.57;;
40997;SDS011;26740;45.944;12.480;2023-07-20T14:33:30;3.08;;;0.65;;
40997;SDS011;26740;45.944;12.480;2023-07-20T14:35:55;2.40;;;0.63;;
40997;SDS011;26740;45.944;12.480;2023-07-20T14:38:21;7.68;;;0.75;;
40997;SDS011;26740;45.944;12.480;2023-07-20T14:40:46;1.08;;;0.40;;
40997;SDS011;26740;45.944;12.480;2023-07-20T14:43:11;0.88;;;0.55;;